Ardmore, North Carolina
Current Conditions -  °F | °C
As of 4:14 AM on Monday 22 Dec 2014 (Local Time) from KINT Reporting Station
Light Rain Light Rain  
Wind Chill: 30°   Ceiling: 4300
Heat Index: 36°   Visibility: 4mi
Dew Point: 33°   Wind: 8mph
Humidity: 89%   Direction: 40°NE
Pressure: 30.16"   Gusts: NA
Location:  36.0595°N, 80.3192°W
Report Text: KINT 220914Z AUTO 04007KT 4SM -RA BR FEW006 BKN043 OVC075 02/01 A3016 RMK AO2 UPB0856E03 P0001 I1000 T00220006
Loading
Personal Weather Stations






























Interactive Weather Map New forecast layout! Learn more

10-Day Weather Forecast

Advertisements
Track Severe Weather on mobile